sensor_id;sensor_type;location;lat;lon;timestamp;temperature;humidity
23323;DHT22;11833;52.554;13.554;2023-06-10T00:00:53;20.90;79.90
23323;DHT22;11833;52.554;13.554;2023-06-10T00:03:21;20.90;80.10
23323;DHT22;11833;52.554;13.554;2023-06-10T00:05:49;20.80;80.60
23323;DHT22;11833;52.554;13.554;2023-06-10T00:08:15;20.80;81.10
23323;DHT22;11833;52.554;13.554;2023-06-10T00:10:41;20.70;81.30
23323;DHT22;11833;52.554;13.554;2023-06-10T00:13:07;20.70;81.80
23323;DHT22;11833;52.554;13.554;2023-06-10T00:15:37;20.60;82.10
23323;DHT22;11833;52.554;13.554;2023-06-10T00:18:03;20.70;82.40
23323;DHT22;11833;52.554;13.554;2023-06-10T00:20:30;20.60;82.10
23323;DHT22;11833;52.554;13.554;2023-06-10T00:22:57;20.60;82.60
23323;DHT22;11833;52.554;13.554;2023-06-10T00:25:25;20.60;82.30
23323;DHT22;11833;52.554;13.554;2023-06-10T00:27:51;20.50;83.20
23323;DHT22;11833;52.554;13.554;2023-06-10T00:30:17;20.50;83.40
23323;DHT22;11833;52.554;13.554;2023-06-10T00:32:43;20.30;84.00
23323;DHT22;11833;52.554;13.554;2023-06-10T00:35:08;20.30;84.70
23323;DHT22;11833;52.554;13.554;2023-06-10T00:37:34;20.30;84.80
23323;DHT22;11833;52.554;13.554;2023-06-10T00:40:02;20.30;85.00
23323;DHT22;11833;52.554;13.554;2023-06-10T00:42:29;20.20;85.30
23323;DHT22;11833;52.554;13.554;2023-06-10T00:44:55;20.20;85.70
23323;DHT22;11833;52.554;13.554;2023-06-10T00:47:20;20.10;86.30
23323;DHT22;11833;52.554;13.554;2023-06-10T00:49:47;20.00;87.20
23323;DHT22;11833;52.554;13.554;2023-06-10T00:52:14;19.80;88.20
23323;DHT22;11833;52.554;13.554;2023-06-10T00:54:41;19.80;88.60
23323;DHT22;11833;52.554;13.554;2023-06-10T00:57:07;19.90;88.60
23323;DHT22;11833;52.554;13.554;2023-06-10T00:59:33;19.80;88.60
23323;DHT22;11833;52.554;13.554;2023-06-10T01:01:59;19.80;89.00
23323;DHT22;11833;52.554;13.554;2023-06-10T01:04:26;19.80;89.00
23323;DHT22;11833;52.554;13.554;2023-06-10T01:07:12;19.70;89.50
23323;DHT22;11833;52.554;13.554;2023-06-10T01:12:38;19.60;90.30
23323;DHT22;11833;52.554;13.554;2023-06-10T01:15:08;19.60;90.50
23323;DHT22;11833;52.554;13.554;2023-06-10T01:17:52;19.50;90.80
23323;DHT22;11833;52.554;13.554;2023-06-10T01:20:23;19.50;90.90
23323;DHT22;11833;52.554;13.554;2023-06-10T01:22:53;19.50;91.10
23323;DHT22;11833;52.554;13.554;2023-06-10T01:25:24;19.40;91.40
23323;DHT22;11833;52.554;13.554;2023-06-10T01:28:14;19.40;91.60
23323;DHT22;11833;52.554;13.554;2023-06-10T01:33:21;19.30;91.90
23323;DHT22;11833;52.554;13.554;2023-06-10T01:35:51;19.40;92.00
23323;DHT22;11833;52.554;13.554;2023-06-10T01:38:19;19.40;92.10
23323;DHT22;11833;52.554;13.554;2023-06-10T01:40:48;19.30;92.20
23323;DHT22;11833;52.554;13.554;2023-06-10T01:43:13;19.20;92.40
23323;DHT22;11833;52.554;13.554;2023-06-10T01:45:39;19.20;92.70
23323;DHT22;11833;52.554;13.554;2023-06-10T01:48:05;19.10;93.10
23323;DHT22;11833;52.554;13.554;2023-06-10T01:50:31;19.00;93.40
23323;DHT22;11833;52.554;13.554;2023-06-10T01:52:59;19.10;93.60
23323;DHT22;11833;52.554;13.554;2023-06-10T01:55:25;19.00;93.80
23323;DHT22;11833;52.554;13.554;2023-06-10T01:57:50;18.90;94.20
23323;DHT22;11833;52.554;13.554;2023-06-10T02:00:17;18.90;94.40
23323;DHT22;11833;52.554;13.554;2023-06-10T02:02:43;18.90;94.60
23323;DHT22;11833;52.554;13.554;2023-06-10T02:05:08;19.00;94.50
23323;DHT22;11833;52.554;13.554;2023-06-10T02:07:34;18.90;94.70
23323;DHT22;11833;52.554;13.554;2023-06-10T02:10:00;18.90;94.60
23323;DHT22;11833;52.554;13.554;2023-06-10T02:12:26;18.90;95.00
23323;DHT22;11833;52.554;13.554;2023-06-10T02:14:52;18.80;94.90
23323;DHT22;11833;52.554;13.554;2023-06-10T02:17:17;18.80;95.00
23323;DHT22;11833;52.554;13.554;2023-06-10T02:19:43;18.80;95.10
23323;DHT22;11833;52.554;13.554;2023-06-10T02:22:09;18.70;95.30
23323;DHT22;11833;52.554;13.554;2023-06-10T02:24:36;18.60;95.90
23323;DHT22;11833;52.554;13.554;2023-06-10T02:27:04;18.60;96.10
23323;DHT22;11833;52.554;13.554;2023-06-10T02:29:35;18.50;96.30
23323;DHT22;11833;52.554;13.554;2023-06-10T02:32:02;18.60;96.20
23323;DHT22;11833;52.554;13.554;2023-06-10T02:34:28;18.50;96.30
23323;DHT22;11833;52.554;13.554;2023-06-10T02:36:54;18.50;96.40
23323;DHT22;11833;52.554;13.554;2023-06-10T02:39:21;18.50;96.40
23323;DHT22;11833;52.554;13.554;2023-06-10T02:41:47;18.50;96.80
23323;DHT22;11833;52.554;13.554;2023-06-10T02:44:12;18.50;96.60
23323;DHT22;11833;52.554;13.554;2023-06-10T02:46:38;18.40;96.80
23323;DHT22;11833;52.554;13.554;2023-06-10T02:49:04;18.40;97.00
23323;DHT22;11833;52.554;13.554;2023-06-10T02:51:30;18.40;97.30
23323;DHT22;11833;52.554;13.554;2023-06-10T02:53:55;18.30;97.40
23323;DHT22;11833;52.554;13.554;2023-06-10T02:56:21;18.40;97.40
23323;DHT22;11833;52.554;13.554;2023-06-10T02:58:47;18.40;97.40
23323;DHT22;11833;52.554;13.554;2023-06-10T03:01:15;18.30;97.80
23323;DHT22;11833;52.554;13.554;2023-06-10T03:03:40;18.30;97.70
23323;DHT22;11833;52.554;13.554;2023-06-10T03:06:10;18.30;97.60
23323;DHT22;11833;52.554;13.554;2023-06-10T03:08:36;18.30;97.90
23323;DHT22;11833;52.554;13.554;2023-06-10T03:11:03;18.20;98.10
23323;DHT22;11833;52.554;13.554;2023-06-10T03:13:29;18.20;98.30
23323;DHT22;11833;52.554;13.554;2023-06-10T03:15:54;18.20;98.40
23323;DHT22;11833;52.554;13.554;2023-06-10T03:18:20;18.20;98.60
23323;DHT22;11833;52.554;13.554;2023-06-10T03:20:48;18.20;99.20
23323;DHT22;11833;52.554;13.554;2023-06-10T03:23:14;18.20;98.50
23323;DHT22;11833;52.554;13.554;2023-06-10T03:25:41;18.30;98.20
23323;DHT22;11833;52.554;13.554;2023-06-10T03:28:06;18.30;98.30
23323;DHT22;11833;52.554;13.554;2023-06-10T03:30:32;18.20;98.40
23323;DHT22;11833;52.554;13.554;2023-06-10T03:32:58;18.20;98.90
23323;DHT22;11833;52.554;13.554;2023-06-10T03:35:24;18.20;99.20
23323;DHT22;11833;52.554;13.554;2023-06-10T03:37:49;18.20;98.90
23323;DHT22;11833;52.554;13.554;2023-06-10T03:40:15;18.10;98.90
23323;DHT22;11833;52.554;13.554;2023-06-10T03:42:41;18.10;99.90
23323;DHT22;11833;52.554;13.554;2023-06-10T03:45:07;18.10;99.80
23323;DHT22;11833;52.554;13.554;2023-06-10T03:47:35;18.10;99.90
23323;DHT22;11833;52.554;13.554;2023-06-10T03:50:03;18.10;99.90
23323;DHT22;11833;52.554;13.554;2023-06-10T03:52:30;18.10;99.90
23323;DHT22;11833;52.554;13.554;2023-06-10T03:54:56;18.10;99.90
23323;DHT22;11833;52.554;13.554;2023-06-10T03:57:21;18.10;99.90
23323;DHT22;11833;52.554;13.554;2023-06-10T03:59:47;18.10;99.90
23323;DHT22;11833;52.554;13.554;2023-06-10T04:02:13;18.20;99.90
23323;DHT22;11833;52.554;13.554;2023-06-10T04:04:39;18.20;99.90
23323;DHT22;11833;52.554;13.554;2023-06-10T04:07:05;18.20;99.90
23323;DHT22;11833;52.554;13.554;2023-06-10T04:09:31;18.30;99.60
23323;DHT22;11833;52.554;13.554;2023-06-10T04:11:57;18.40;99.60
23323;DHT22;11833;52.554;13.554;2023-06-10T04:14:23;18.40;99.60
23323;DHT22;11833;52.554;13.554;2023-06-10T04:16:49;18.40;99.40
23323;DHT22;11833;52.554;13.554;2023-06-10T04:19:15;18.50;99.30
23323;DHT22;11833;52.554;13.554;2023-06-10T04:21:42;18.50;99.10
23323;DHT22;11833;52.554;13.554;2023-06-10T04:24:08;18.60;99.10
23323;DHT22;11833;52.554;13.554;2023-06-10T04:26:35;18.60;98.90
23323;DHT22;11833;52.554;13.554;2023-06-10T04:29:01;18.70;98.70
23323;DHT22;11833;52.554;13.554;2023-06-10T04:31:27;18.70;98.50
23323;DHT22;11833;52.554;13.554;2023-06-10T04:33:53;18.70;98.60
23323;DHT22;11833;52.554;13.554;2023-06-10T04:36:20;18.70;98.40
23323;DHT22;11833;52.554;13.554;2023-06-10T04:38:45;18.80;98.30
23323;DHT22;11833;52.554;13.554;2023-06-10T04:41:12;18.80;98.20
23323;DHT22;11833;52.554;13.554;2023-06-10T04:43:38;18.90;98.10
23323;DHT22;11833;52.554;13.554;2023-06-10T04:46:04;18.80;97.90
23323;DHT22;11833;52.554;13.554;2023-06-10T04:48:30;18.80;98.20
23323;DHT22;11833;52.554;13.554;2023-06-10T04:50:56;19.00;97.70
23323;DHT22;11833;52.554;13.554;2023-06-10T04:53:22;19.00;97.90
23323;DHT22;11833;52.554;13.554;2023-06-10T04:55:48;19.10;97.60
23323;DHT22;11833;52.554;13.554;2023-06-10T04:58:14;19.10;97.50
23323;DHT22;11833;52.554;13.554;2023-06-10T05:00:40;19.20;97.10
23323;DHT22;11833;52.554;13.554;2023-06-10T05:03:06;19.40;96.90
23323;DHT22;11833;52.554;13.554;2023-06-10T05:05:33;19.50;96.30
23323;DHT22;11833;52.554;13.554;2023-06-10T05:07:59;19.70;95.70
23323;DHT22;11833;52.554;13.554;2023-06-10T05:10:25;19.70;95.90
23323;DHT22;11833;52.554;13.554;2023-06-10T05:12:51;19.60;95.60
23323;DHT22;11833;52.554;13.554;2023-06-10T05:15:16;19.70;95.70
23323;DHT22;11833;52.554;13.554;2023-06-10T05:17:42;19.70;96.00
23323;DHT22;11833;52.554;13.554;2023-06-10T05:20:08;19.80;95.90
23323;DHT22;11833;52.554;13.554;2023-06-10T05:22:34;19.90;95.70
23323;DHT22;11833;52.554;13.554;2023-06-10T05:25:00;20.00;94.90
23323;DHT22;11833;52.554;13.554;2023-06-10T05:27:26;20.20;94.00
23323;DHT22;11833;52.554;13.554;2023-06-10T05:29:52;20.20;93.50
23323;DHT22;11833;52.554;13.554;2023-06-10T05:32:18;20.30;93.50
23323;DHT22;11833;52.554;13.554;2023-06-10T05:34:44;20.30;93.40
23323;DHT22;11833;52.554;13.554;2023-06-10T05:37:09;20.30;93.60
23323;DHT22;11833;52.554;13.554;2023-06-10T05:39:36;20.30;93.20
23323;DHT22;11833;52.554;13.554;2023-06-10T05:42:08;20.20;93.20
23323;DHT22;11833;52.554;13.554;2023-06-10T05:44:34;20.30;93.00
23323;DHT22;11833;52.554;13.554;2023-06-10T05:47:00;20.30;93.20
23323;DHT22;11833;52.554;13.554;2023-06-10T05:49:26;20.30;93.50
23323;DHT22;11833;52.554;13.554;2023-06-10T05:51:52;20.40;93.40
23323;DHT22;11833;52.554;13.554;2023-06-10T05:54:18;20.40;93.00
23323;DHT22;11833;52.554;13.554;2023-06-10T05:56:44;20.50;92.70
23323;DHT22;11833;52.554;13.554;2023-06-10T05:59:10;20.50;92.50
23323;DHT22;11833;52.554;13.554;2023-06-10T06:01:36;20.40;93.00
23323;DHT22;11833;52.554;13.554;2023-06-10T06:04:01;20.30;93.30
23323;DHT22;11833;52.554;13.554;2023-06-10T06:06:27;20.60;92.40
23323;DHT22;11833;52.554;13.554;2023-06-10T06:08:53;20.60;91.90
23323;DHT22;11833;52.554;13.554;2023-06-10T06:11:19;20.70;92.10
23323;DHT22;11833;52.554;13.554;2023-06-10T06:13:45;20.60;92.30
23323;DHT22;11833;52.554;13.554;2023-06-10T06:16:10;20.60;92.20
23323;DHT22;11833;52.554;13.554;2023-06-10T06:18:36;20.60;92.30
23323;DHT22;11833;52.554;13.554;2023-06-10T06:21:02;20.70;92.00
23323;DHT22;11833;52.554;13.554;2023-06-10T06:23:28;20.70;91.90
23323;DHT22;11833;52.554;13.554;2023-06-10T06:25:53;20.90;91.50
23323;DHT22;11833;52.554;13.554;2023-06-10T06:28:19;20.90;91.50
23323;DHT22;11833;52.554;13.554;2023-06-10T06:30:46;21.00;91.40
23323;DHT22;11833;52.554;13.554;2023-06-10T06:33:13;21.10;91.40
23323;DHT22;11833;52.554;13.554;2023-06-10T06:35:39;21.20;91.40
23323;DHT22;11833;52.554;13.554;2023-06-10T06:38:05;21.30;91.30
23323;DHT22;11833;52.554;13.554;2023-06-10T06:40:31;21.40;90.90
23323;DHT22;11833;52.554;13.554;2023-06-10T06:42:57;21.40;90.60
23323;DHT22;11833;52.554;13.554;2023-06-10T06:45:23;21.50;90.40
23323;DHT22;11833;52.554;13.554;2023-06-10T06:47:48;21.50;90.70
23323;DHT22;11833;52.554;13.554;2023-06-10T06:50:14;21.60;89.70
23323;DHT22;11833;52.554;13.554;2023-06-10T06:52:40;21.70;89.80
23323;DHT22;11833;52.554;13.554;2023-06-10T06:55:06;21.80;89.70
23323;DHT22;11833;52.554;13.554;2023-06-10T06:57:32;21.90;89.00
23323;DHT22;11833;52.554;13.554;2023-06-10T06:59:58;22.10;88.30
23323;DHT22;11833;52.554;13.554;2023-06-10T07:02:24;22.20;88.10
23323;DHT22;11833;52.554;13.554;2023-06-10T07:04:50;22.30;86.80
23323;DHT22;11833;52.554;13.554;2023-06-10T07:07:15;22.30;86.90
23323;DHT22;11833;52.554;13.554;2023-06-10T07:09:41;22.30;87.10
23323;DHT22;11833;52.554;13.554;2023-06-10T07:12:07;22.30;87.10
23323;DHT22;11833;52.554;13.554;2023-06-10T07:14:33;22.30;86.30
23323;DHT22;11833;52.554;13.554;2023-06-10T07:16:59;22.30;85.40
23323;DHT22;11833;52.554;13.554;2023-06-10T07:19:25;22.30;85.30
23323;DHT22;11833;52.554;13.554;2023-06-10T07:21:51;22.30;85.50
23323;DHT22;11833;52.554;13.554;2023-06-10T07:24:16;22.30;84.70
23323;DHT22;11833;52.554;13.554;2023-06-10T07:26:42;22.30;84.90
23323;DHT22;11833;52.554;13.554;2023-06-10T07:30:12;22.30;84.70
23323;DHT22;11833;52.554;13.554;2023-06-10T07:32:38;22.30;85.60
23323;DHT22;11833;52.554;13.554;2023-06-10T07:35:07;22.40;85.10
23323;DHT22;11833;52.554;13.554;2023-06-10T07:37:33;22.50;85.30
23323;DHT22;11833;52.554;13.554;2023-06-10T07:39:59;22.70;84.60
23323;DHT22;11833;52.554;13.554;2023-06-10T07:42:25;22.80;83.70
23323;DHT22;11833;52.554;13.554;2023-06-10T07:44:51;23.00;84.00
23323;DHT22;11833;52.554;13.554;2023-06-10T07:47:17;23.10;83.50
23323;DHT22;11833;52.554;13.554;2023-06-10T07:49:43;23.30;82.40
23323;DHT22;11833;52.554;13.554;2023-06-10T07:52:09;23.60;81.60
23323;DHT22;11833;52.554;13.554;2023-06-10T07:54:34;23.70;80.80
23323;DHT22;11833;52.554;13.554;2023-06-10T07:57:00;23.80;80.30
23323;DHT22;11833;52.554;13.554;2023-06-10T07:59:26;23.80;80.00
23323;DHT22;11833;52.554;13.554;2023-06-10T08:01:53;23.90;79.70
23323;DHT22;11833;52.554;13.554;2023-06-10T08:04:18;23.90;79.50
23323;DHT22;11833;52.554;13.554;2023-06-10T08:06:44;23.80;79.60
23323;DHT22;11833;52.554;13.554;2023-06-10T08:09:10;23.90;79.70
23323;DHT22;11833;52.554;13.554;2023-06-10T08:11:36;23.90;79.40
23323;DHT22;11833;52.554;13.554;2023-06-10T08:14:01;24.00;79.00
23323;DHT22;11833;52.554;13.554;2023-06-10T08:16:27;24.00;78.80
23323;DHT22;11833;52.554;13.554;2023-06-10T08:18:53;24.10;78.40
23323;DHT22;11833;52.554;13.554;2023-06-10T08:21:19;24.20;78.30
23323;DHT22;11833;52.554;13.554;2023-06-10T08:23:44;24.20;78.00
23323;DHT22;11833;52.554;13.554;2023-06-10T08:26:10;24.30;77.40
23323;DHT22;11833;52.554;13.554;2023-06-10T08:28:36;24.50;76.80
23323;DHT22;11833;52.554;13.554;2023-06-10T08:31:02;24.60;76.30
23323;DHT22;11833;52.554;13.554;2023-06-10T08:33:28;24.80;76.30
23323;DHT22;11833;52.554;13.554;2023-06-10T08:35:53;24.90;75.20
23323;DHT22;11833;52.554;13.554;2023-06-10T08:38:19;24.90;74.50
23323;DHT22;11833;52.554;13.554;2023-06-10T08:40:45;25.10;74.20
23323;DHT22;11833;52.554;13.554;2023-06-10T08:43:17;25.10;73.70
23323;DHT22;11833;52.554;13.554;2023-06-10T08:45:49;25.20;73.50
23323;DHT22;11833;52.554;13.554;2023-06-10T08:48:17;25.30;73.00
23323;DHT22;11833;52.554;13.554;2023-06-10T08:50:44;25.40;72.80
23323;DHT22;11833;52.554;13.554;2023-06-10T08:53:14;25.50;72.60
23323;DHT22;11833;52.554;13.554;2023-06-10T08:55:50;25.60;71.80
23323;DHT22;11833;52.554;13.554;2023-06-10T08:58:17;25.80;71.30
23323;DHT22;11833;52.554;13.554;2023-06-10T09:00:44;25.80;70.90
23323;DHT22;11833;52.554;13.554;2023-06-10T09:03:10;25.70;70.50
23323;DHT22;11833;52.554;13.554;2023-06-10T09:05:37;25.70;71.50
23323;DHT22;11833;52.554;13.554;2023-06-10T09:08:04;25.50;70.40
23323;DHT22;11833;52.554;13.554;2023-06-10T09:10:31;25.40;70.70
23323;DHT22;11833;52.554;13.554;2023-06-10T09:12:58;25.30;70.10
23323;DHT22;11833;52.554;13.554;2023-06-10T09:15:23;25.20;70.40
23323;DHT22;11833;52.554;13.554;2023-06-10T09:17:49;25.10;71.20
23323;DHT22;11833;52.554;13.554;2023-06-10T09:20:16;25.00;71.00
23323;DHT22;11833;52.554;13.554;2023-06-10T09:22:42;25.00;71.10
23323;DHT22;11833;52.554;13.554;2023-06-10T09:25:11;25.10;71.20
23323;DHT22;11833;52.554;13.554;2023-06-10T09:30:26;25.30;70.60
23323;DHT22;11833;52.554;13.554;2023-06-10T09:32:58;25.30;70.20
23323;DHT22;11833;52.554;13.554;2023-06-10T09:35:26;25.30;69.90
23323;DHT22;11833;52.554;13.554;2023-06-10T09:37:54;25.30;69.20
23323;DHT22;11833;52.554;13.554;2023-06-10T09:40:24;25.40;69.70
23323;DHT22;11833;52.554;13.554;2023-06-10T09:43:00;25.40;69.70
23323;DHT22;11833;52.554;13.554;2023-06-10T09:45:32;25.30;69.90
23323;DHT22;11833;52.554;13.554;2023-06-10T09:47:58;25.40;69.60
23323;DHT22;11833;52.554;13.554;2023-06-10T09:50:24;25.50;69.10
23323;DHT22;11833;52.554;13.554;2023-06-10T09:52:50;25.40;68.60
23323;DHT22;11833;52.554;13.554;2023-06-10T09:55:17;25.40;68.50
23323;DHT22;11833;52.554;13.554;2023-06-10T09:57:43;25.40;68.30
23323;DHT22;11833;52.554;13.554;2023-06-10T10:00:13;25.40;67.80
23323;DHT22;11833;52.554;13.554;2023-06-10T10:02:48;25.30;67.60
23323;DHT22;11833;52.554;13.554;2023-06-10T10:05:16;25.30;67.50
23323;DHT22;11833;52.554;13.554;2023-06-10T10:07:44;25.30;67.20
23323;DHT22;11833;52.554;13.554;2023-06-10T10:10:12;25.40;66.00
23323;DHT22;11833;52.554;13.554;2023-06-10T10:12:40;25.50;65.40
23323;DHT22;11833;52.554;13.554;2023-06-10T10:15:08;25.50;64.70
23323;DHT22;11833;52.554;13.554;2023-06-10T10:17:39;25.40;64.50
23323;DHT22;11833;52.554;13.554;2023-06-10T10:20:07;25.30;64.60
23323;DHT22;11833;52.554;13.554;2023-06-10T10:22:41;25.20;63.80
23323;DHT22;11833;52.554;13.554;2023-06-10T10:25:23;25.10;64.10
23323;DHT22;11833;52.554;13.554;2023-06-10T10:27:54;25.10;63.60
23323;DHT22;11833;52.554;13.554;2023-06-10T10:30:23;25.10;63.10
23323;DHT22;11833;52.554;13.554;2023-06-10T10:36:18;25.20;62.80
23323;DHT22;11833;52.554;13.554;2023-06-10T10:38:46;25.30;62.40
23323;DHT22;11833;52.554;13.554;2023-06-10T10:41:14;25.40;61.00
23323;DHT22;11833;52.554;13.554;2023-06-10T10:43:41;25.30;59.60
23323;DHT22;11833;52.554;13.554;2023-06-10T10:46:16;25.30;60.00
23323;DHT22;11833;52.554;13.554;2023-06-10T10:48:42;25.30;59.70
23323;DHT22;11833;52.554;13.554;2023-06-10T10:51:09;25.30;59.70
23323;DHT22;11833;52.554;13.554;2023-06-10T10:53:37;25.40;59.40
23323;DHT22;11833;52.554;13.554;2023-06-10T10:56:08;25.40;58.60
23323;DHT22;11833;52.554;13.554;2023-06-10T10:58:38;25.50;59.50
23323;DHT22;11833;52.554;13.554;2023-06-10T11:01:14;25.60;58.90
23323;DHT22;11833;52.554;13.554;2023-06-10T11:03:44;25.70;58.30
23323;DHT22;11833;52.554;13.554;2023-06-10T11:06:14;25.80;57.90
23323;DHT22;11833;52.554;13.554;2023-06-10T11:11:24;26.30;56.00
23323;DHT22;11833;52.554;13.554;2023-06-10T11:16:39;27.00;54.90
23323;DHT22;11833;52.554;13.554;2023-06-10T11:19:07;27.30;55.00
23323;DHT22;11833;52.554;13.554;2023-06-10T11:21:58;27.70;54.00
23323;DHT22;11833;52.554;13.554;2023-06-10T11:24:25;27.90;53.50
23323;DHT22;11833;52.554;13.554;2023-06-10T11:26:51;28.20;53.60
23323;DHT22;11833;52.554;13.554;2023-06-10T11:29:17;28.40;53.80
23323;DHT22;11833;52.554;13.554;2023-06-10T11:31:49;28.60;54.30
23323;DHT22;11833;52.554;13.554;2023-06-10T11:34:21;28.90;54.70
23323;DHT22;11833;52.554;13.554;2023-06-10T11:36:53;29.00;55.20
23323;DHT22;11833;52.554;13.554;2023-06-10T11:39:20;29.20;55.70
23323;DHT22;11833;52.554;13.554;2023-06-10T11:41:46;29.20;56.30
23323;DHT22;11833;52.554;13.554;2023-06-10T11:44:13;29.30;56.00
23323;DHT22;11833;52.554;13.554;2023-06-10T11:46:40;29.40;55.90
23323;DHT22;11833;52.554;13.554;2023-06-10T11:49:08;29.60;55.60
23323;DHT22;11833;52.554;13.554;2023-06-10T11:51:40;29.80;55.20
23323;DHT22;11833;52.554;13.554;2023-06-10T11:54:10;30.00;54.60
23323;DHT22;11833;52.554;13.554;2023-06-10T11:56:36;30.30;53.60
23323;DHT22;11833;52.554;13.554;2023-06-10T11:59:03;30.60;52.40
23323;DHT22;11833;52.554;13.554;2023-06-10T12:01:33;30.70;51.90
23323;DHT22;11833;52.554;13.554;2023-06-10T12:04:08;31.00;50.90
23323;DHT22;11833;52.554;13.554;2023-06-10T12:09:14;31.20;49.50
23323;DHT22;11833;52.554;13.554;2023-06-10T12:11:45;31.30;48.90
23323;DHT22;11833;52.554;13.554;2023-06-10T12:14:11;31.60;48.40
23323;DHT22;11833;52.554;13.554;2023-06-10T12:16:36;32.00;47.50
23323;DHT22;11833;52.554;13.554;2023-06-10T12:19:03;32.00;47.20
23323;DHT22;11833;52.554;13.554;2023-06-10T12:21:31;32.50;46.40
23323;DHT22;11833;52.554;13.554;2023-06-10T12:26:44;32.60;46.10
23323;DHT22;11833;52.554;13.554;2023-06-10T12:34:49;33.20;46.30
23323;DHT22;11833;52.554;13.554;2023-06-10T12:37:16;33.10;46.20
23323;DHT22;11833;52.554;13.554;2023-06-10T12:39:42;33.20;46.10
23323;DHT22;11833;52.554;13.554;2023-06-10T12:42:12;33.50;45.80
23323;DHT22;11833;52.554;13.554;2023-06-10T12:44:41;33.50;45.90
23323;DHT22;11833;52.554;13.554;2023-06-10T12:47:10;33.80;45.60
23323;DHT22;11833;52.554;13.554;2023-06-10T12:49:39;34.20;44.90
23323;DHT22;11833;52.554;13.554;2023-06-10T12:52:06;34.00;45.00
23323;DHT22;11833;52.554;13.554;2023-06-10T12:54:32;34.10;44.70
23323;DHT22;11833;52.554;13.554;2023-06-10T12:57:00;34.30;44.40
23323;DHT22;11833;52.554;13.554;2023-06-10T12:59:26;34.30;44.10
23323;DHT22;11833;52.554;13.554;2023-06-10T13:01:53;34.40;44.10
23323;DHT22;11833;52.554;13.554;2023-06-10T13:04:20;35.00;43.40
23323;DHT22;11833;52.554;13.554;2023-06-10T13:06:47;34.90;43.50
23323;DHT22;11833;52.554;13.554;2023-06-10T13:09:14;35.30;43.10
23323;DHT22;11833;52.554;13.554;2023-06-10T13:11:41;35.60;42.10
23323;DHT22;11833;52.554;13.554;2023-06-10T13:14:08;35.80;42.10
23323;DHT22;11833;52.554;13.554;2023-06-10T13:16:34;36.00;41.40
23323;DHT22;11833;52.554;13.554;2023-06-10T13:19:00;35.80;41.70
23323;DHT22;11833;52.554;13.554;2023-06-10T13:21:28;35.60;41.80
23323;DHT22;11833;52.554;13.554;2023-06-10T13:23:53;36.00;41.80
23323;DHT22;11833;52.554;13.554;2023-06-10T13:26:19;36.10;41.60
23323;DHT22;11833;52.554;13.554;2023-06-10T13:28:45;36.20;41.00
23323;DHT22;11833;52.554;13.554;2023-06-10T13:31:11;35.80;41.00
23323;DHT22;11833;52.554;13.554;2023-06-10T13:33:37;35.50;41.50
23323;DHT22;11833;52.554;13.554;2023-06-10T13:36:04;35.10;41.20
23323;DHT22;11833;52.554;13.554;2023-06-10T13:38:30;35.00;41.50
23323;DHT22;11833;52.554;13.554;2023-06-10T13:40:55;35.20;41.20
23323;DHT22;11833;52.554;13.554;2023-06-10T13:43:21;35.50;41.10
23323;DHT22;11833;52.554;13.554;2023-06-10T13:45:47;35.70;40.90
23323;DHT22;11833;52.554;13.554;2023-06-10T13:48:13;35.80;40.50
23323;DHT22;11833;52.554;13.554;2023-06-10T13:50:38;35.80;39.70
23323;DHT22;11833;52.554;13.554;2023-06-10T13:53:04;35.80;39.40
23323;DHT22;11833;52.554;13.554;2023-06-10T13:55:30;35.70;38.30
23323;DHT22;11833;52.554;13.554;2023-06-10T13:57:55;35.80;38.60
23323;DHT22;11833;52.554;13.554;2023-06-10T14:00:21;35.90;38.30
23323;DHT22;11833;52.554;13.554;2023-06-10T14:02:47;35.90;37.60
23323;DHT22;11833;52.554;13.554;2023-06-10T14:05:13;35.80;37.30
23323;DHT22;11833;52.554;13.554;2023-06-10T14:07:38;35.60;37.50
23323;DHT22;11833;52.554;13.554;2023-06-10T14:10:06;35.10;37.80
23323;DHT22;11833;52.554;13.554;2023-06-10T14:12:34;35.20;38.00
23323;DHT22;11833;52.554;13.554;2023-06-10T14:15:00;35.50;37.70
23323;DHT22;11833;52.554;13.554;2023-06-10T14:17:26;35.90;37.10
23323;DHT22;11833;52.554;13.554;2023-06-10T14:19:52;36.10;36.70
23323;DHT22;11833;52.554;13.554;2023-06-10T14:22:17;36.40;36.30
23323;DHT22;11833;52.554;13.554;2023-06-10T14:24:43;36.40;36.00
23323;DHT22;11833;52.554;13.554;2023-06-10T14:27:09;36.40;35.80
23323;DHT22;11833;52.554;13.554;2023-06-10T14:29:34;36.50;35.30
23323;DHT22;11833;52.554;13.554;2023-06-10T14:32:01;36.70;35.20
23323;DHT22;11833;52.554;13.554;2023-06-10T14:34:26;36.90;34.70
23323;DHT22;11833;52.554;13.554;2023-06-10T14:36:55;36.90;34.20
23323;DHT22;11833;52.554;13.554;2023-06-10T14:39:21;37.20;33.90
23323;DHT22;11833;52.554;13.554;2023-06-10T14:41:46;37.40;33.60
23323;DHT22;11833;52.554;13.554;2023-06-10T14:44:13;37.40;33.30
23323;DHT22;11833;52.554;13.554;2023-06-10T14:46:38;37.60;32.90
23323;DHT22;11833;52.554;13.554;2023-06-10T14:49:04;37.80;32.50
23323;DHT22;11833;52.554;13.554;2023-06-10T14:51:30;38.00;31.90
23323;DHT22;11833;52.554;13.554;2023-06-10T14:53:55;38.00;32.10
23323;DHT22;11833;52.554;13.554;2023-06-10T14:56:21;37.80;32.10
23323;DHT22;11833;52.554;13.554;2023-06-10T14:58:47;37.90;32.00
23323;DHT22;11833;52.554;13.554;2023-06-10T15:01:13;37.80;32.00
23323;DHT22;11833;52.554;13.554;2023-06-10T15:03:38;37.70;31.90
23323;DHT22;11833;52.554;13.554;2023-06-10T15:06:04;37.70;31.90
23323;DHT22;11833;52.554;13.554;2023-06-10T15:08:30;37.80;31.50
23323;DHT22;11833;52.554;13.554;2023-06-10T15:10:55;38.20;31.10
23323;DHT22;11833;52.554;13.554;2023-06-10T15:13:22;38.30;30.90
23323;DHT22;11833;52.554;13.554;2023-06-10T15:15:48;38.40;31.10
23323;DHT22;11833;52.554;13.554;2023-06-10T15:18:14;38.10;30.50
23323;DHT22;11833;52.554;13.554;2023-06-10T15:20:40;38.00;30.50
23323;DHT22;11833;52.554;13.554;2023-06-10T15:23:05;37.90;30.40
23323;DHT22;11833;52.554;13.554;2023-06-10T15:25:33;37.60;30.10
23323;DHT22;11833;52.554;13.554;2023-06-10T15:27:59;37.30;30.30
23323;DHT22;11833;52.554;13.554;2023-06-10T15:30:25;36.90;30.80
23323;DHT22;11833;52.554;13.554;2023-06-10T15:32:50;36.60;31.30
23323;DHT22;11833;52.554;13.554;2023-06-10T15:35:17;36.60;31.30
23323;DHT22;11833;52.554;13.554;2023-06-10T15:37:42;36.60;31.00
23323;DHT22;11833;52.554;13.554;2023-06-10T15:40:08;36.30;31.30
23323;DHT22;11833;52.554;13.554;2023-06-10T15:42:34;36.10;31.10